sensor_id;sensor_type;location;lat;lon;timestamp;P1;durP1;ratioP1;P2;durP2;ratioP2
26277;SDS011;14000;52.056;8.510;2023-08-07T00:00:05;20.00;;;5.37;;
26277;SDS011;14000;52.056;8.510;2023-08-07T00:02:34;16.00;;;4.93;;
26277;SDS011;14000;52.056;8.510;2023-08-07T00:04:59;19.30;;;5.10;;
26277;SDS011;14000;52.056;8.510;2023-08-07T00:07:25;18.80;;;6.13;;
26277;SDS011;14000;52.056;8.510;2023-08-07T00:09:50;13.53;;;5.00;;
26277;SDS011;14000;52.056;8.510;2023-08-07T00:12:16;16.03;;;4.80;;
26277;SDS011;14000;52.056;8.510;2023-08-07T00:14:42;14.93;;;5.30;;
26277;SDS011;14000;52.056;8.510;2023-08-07T00:17:07;16.63;;;5.90;;
26277;SDS011;14000;52.056;8.510;2023-08-07T00:19:33;17.77;;;5.33;;
26277;SDS011;14000;52.056;8.510;2023-08-07T00:21:59;16.83;;;5.50;;
26277;SDS011;14000;52.056;8.510;2023-08-07T00:24:25;13.63;;;5.10;;
26277;SDS011;14000;52.056;8.510;2023-08-07T00:26:50;21.80;;;5.80;;
26277;SDS011;14000;52.056;8.510;2023-08-07T00:29:16;24.57;;;6.67;;
26277;SDS011;14000;52.056;8.510;2023-08-07T00:31:41;15.63;;;5.23;;
26277;SDS011;14000;52.056;8.510;2023-08-07T00:34:07;18.07;;;5.80;;
26277;SDS011;14000;52.056;8.510;2023-08-07T00:36:34;22.90;;;5.80;;
26277;SDS011;14000;52.056;8.510;2023-08-07T00:39:00;21.63;;;6.60;;
26277;SDS011;14000;52.056;8.510;2023-08-07T00:41:28;17.73;;;5.37;;
26277;SDS011;14000;52.056;8.510;2023-08-07T00:43:54;16.43;;;5.07;;
26277;SDS011;14000;52.056;8.510;2023-08-07T00:46:19;12.60;;;4.33;;
26277;SDS011;14000;52.056;8.510;2023-08-07T00:48:45;19.17;;;5.43;;
26277;SDS011;14000;52.056;8.510;2023-08-07T00:51:11;14.63;;;4.73;;
26277;SDS011;14000;52.056;8.510;2023-08-07T00:53:37;20.23;;;5.80;;
26277;SDS011;14000;52.056;8.510;2023-08-07T00:56:04;17.07;;;5.37;;
26277;SDS011;14000;52.056;8.510;2023-08-07T00:58:30;17.20;;;5.63;;
26277;SDS011;14000;52.056;8.510;2023-08-07T01:00:56;19.23;;;4.80;;
26277;SDS011;14000;52.056;8.510;2023-08-07T01:03:22;15.13;;;5.20;;
26277;SDS011;14000;52.056;8.510;2023-08-07T01:05:48;14.53;;;5.13;;
26277;SDS011;14000;52.056;8.510;2023-08-07T01:08:14;16.80;;;5.07;;
26277;SDS011;14000;52.056;8.510;2023-08-07T01:11:06;20.63;;;4.77;;
26277;SDS011;14000;52.056;8.510;2023-08-07T01:13:55;18.47;;;5.27;;
26277;SDS011;14000;52.056;8.510;2023-08-07T01:16:26;19.97;;;5.93;;
26277;SDS011;14000;52.056;8.510;2023-08-07T01:18:57;15.73;;;5.77;;
26277;SDS011;14000;52.056;8.510;2023-08-07T01:21:25;16.40;;;6.30;;
26277;SDS011;14000;52.056;8.510;2023-08-07T01:23:50;21.97;;;6.80;;
26277;SDS011;14000;52.056;8.510;2023-08-07T01:26:17;22.97;;;7.77;;
26277;SDS011;14000;52.056;8.510;2023-08-07T01:28:46;20.40;;;7.87;;
26277;SDS011;14000;52.056;8.510;2023-08-07T01:31:17;20.13;;;7.27;;
26277;SDS011;14000;52.056;8.510;2023-08-07T01:36:21;22.43;;;7.70;;
26277;SDS011;14000;52.056;8.510;2023-08-07T01:38:51;23.83;;;7.53;;
26277;SDS011;14000;52.056;8.510;2023-08-07T01:41:18;21.03;;;7.97;;
26277;SDS011;14000;52.056;8.510;2023-08-07T01:43:44;16.10;;;6.83;;
26277;SDS011;14000;52.056;8.510;2023-08-07T01:46:10;22.00;;;8.13;;
26277;SDS011;14000;52.056;8.510;2023-08-07T01:48:36;19.97;;;8.07;;
26277;SDS011;14000;52.056;8.510;2023-08-07T01:51:01;27.27;;;7.70;;
26277;SDS011;14000;52.056;8.510;2023-08-07T01:53:27;21.47;;;7.07;;
26277;SDS011;14000;52.056;8.510;2023-08-07T01:55:53;20.73;;;7.83;;
26277;SDS011;14000;52.056;8.510;2023-08-07T01:58:18;18.20;;;8.00;;
26277;SDS011;14000;52.056;8.510;2023-08-07T02:00:44;15.47;;;6.80;;
26277;SDS011;14000;52.056;8.510;2023-08-07T02:03:09;20.10;;;7.00;;
26277;SDS011;14000;52.056;8.510;2023-08-07T02:05:35;17.60;;;6.47;;
26277;SDS011;14000;52.056;8.510;2023-08-07T02:08:00;25.23;;;8.17;;
26277;SDS011;14000;52.056;8.510;2023-08-07T02:10:26;16.80;;;7.50;;
26277;SDS011;14000;52.056;8.510;2023-08-07T02:12:53;19.27;;;7.53;;
26277;SDS011;14000;52.056;8.510;2023-08-07T02:15:18;16.50;;;7.00;;
26277;SDS011;14000;52.056;8.510;2023-08-07T02:17:44;17.07;;;7.37;;
26277;SDS011;14000;52.056;8.510;2023-08-07T02:20:10;22.13;;;8.77;;
26277;SDS011;14000;52.056;8.510;2023-08-07T02:22:36;15.87;;;7.17;;
26277;SDS011;14000;52.056;8.510;2023-08-07T02:25:01;17.90;;;6.97;;
26277;SDS011;14000;52.056;8.510;2023-08-07T02:27:27;18.33;;;7.00;;
26277;SDS011;14000;52.056;8.510;2023-08-07T02:29:53;19.87;;;7.00;;
26277;SDS011;14000;52.056;8.510;2023-08-07T02:32:19;17.30;;;7.50;;
26277;SDS011;14000;52.056;8.510;2023-08-07T02:34:44;16.53;;;7.13;;
26277;SDS011;14000;52.056;8.510;2023-08-07T02:37:11;18.60;;;7.50;;
26277;SDS011;14000;52.056;8.510;2023-08-07T02:39:36;19.53;;;7.87;;
26277;SDS011;14000;52.056;8.510;2023-08-07T02:42:02;14.10;;;6.63;;
26277;SDS011;14000;52.056;8.510;2023-08-07T02:44:28;18.23;;;6.90;;
26277;SDS011;14000;52.056;8.510;2023-08-07T02:46:53;19.33;;;7.00;;
26277;SDS011;14000;52.056;8.510;2023-08-07T02:49:19;20.03;;;8.00;;
26277;SDS011;14000;52.056;8.510;2023-08-07T02:51:45;18.83;;;7.43;;
26277;SDS011;14000;52.056;8.510;2023-08-07T02:54:10;16.60;;;6.47;;
26277;SDS011;14000;52.056;8.510;2023-08-07T02:56:36;17.40;;;7.70;;
26277;SDS011;14000;52.056;8.510;2023-08-07T02:59:01;20.63;;;7.67;;
26277;SDS011;14000;52.056;8.510;2023-08-07T03:01:27;21.33;;;7.83;;
26277;SDS011;14000;52.056;8.510;2023-08-07T03:03:53;20.17;;;8.10;;
26277;SDS011;14000;52.056;8.510;2023-08-07T03:06:19;19.97;;;8.13;;
26277;SDS011;14000;52.056;8.510;2023-08-07T03:08:44;18.73;;;8.17;;
26277;SDS011;14000;52.056;8.510;2023-08-07T03:11:10;15.53;;;7.67;;
26277;SDS011;14000;52.056;8.510;2023-08-07T03:13:36;21.67;;;9.00;;
26277;SDS011;14000;52.056;8.510;2023-08-07T03:16:02;16.23;;;8.37;;
26277;SDS011;14000;52.056;8.510;2023-08-07T03:18:29;21.63;;;9.07;;
26277;SDS011;14000;52.056;8.510;2023-08-07T03:20:55;22.40;;;8.67;;
26277;SDS011;14000;52.056;8.510;2023-08-07T03:23:21;25.17;;;10.10;;
26277;SDS011;14000;52.056;8.510;2023-08-07T03:25:47;18.87;;;9.13;;
26277;SDS011;14000;52.056;8.510;2023-08-07T03:28:13;19.93;;;10.80;;
26277;SDS011;14000;52.056;8.510;2023-08-07T03:30:39;20.17;;;9.20;;
26277;SDS011;14000;52.056;8.510;2023-08-07T03:33:04;20.20;;;9.50;;
26277;SDS011;14000;52.056;8.510;2023-08-07T03:35:31;18.57;;;9.00;;
26277;SDS011;14000;52.056;8.510;2023-08-07T03:37:57;20.97;;;10.33;;
26277;SDS011;14000;52.056;8.510;2023-08-07T03:40:22;26.90;;;11.20;;
26277;SDS011;14000;52.056;8.510;2023-08-07T03:42:48;20.80;;;9.60;;
26277;SDS011;14000;52.056;8.510;2023-08-07T03:45:13;20.40;;;10.47;;
26277;SDS011;14000;52.056;8.510;2023-08-07T03:47:39;22.57;;;10.77;;
26277;SDS011;14000;52.056;8.510;2023-08-07T03:50:05;24.73;;;12.73;;
26277;SDS011;14000;52.056;8.510;2023-08-07T03:52:31;19.80;;;10.70;;
26277;SDS011;14000;52.056;8.510;2023-08-07T03:54:56;18.60;;;10.03;;
26277;SDS011;14000;52.056;8.510;2023-08-07T03:57:22;21.77;;;12.03;;
26277;SDS011;14000;52.056;8.510;2023-08-07T03:59:47;23.07;;;11.67;;
26277;SDS011;14000;52.056;8.510;2023-08-07T04:02:13;19.87;;;11.70;;
26277;SDS011;14000;52.056;8.510;2023-08-07T04:04:38;23.33;;;10.83;;
26277;SDS011;14000;52.056;8.510;2023-08-07T04:07:04;25.60;;;12.47;;
26277;SDS011;14000;52.056;8.510;2023-08-07T04:09:30;21.70;;;11.83;;
26277;SDS011;14000;52.056;8.510;2023-08-07T04:11:57;21.70;;;10.97;;
26277;SDS011;14000;52.056;8.510;2023-08-07T04:14:22;23.13;;;11.00;;
26277;SDS011;14000;52.056;8.510;2023-08-07T04:16:48;18.73;;;10.93;;
26277;SDS011;14000;52.056;8.510;2023-08-07T04:19:14;27.80;;;12.20;;
26277;SDS011;14000;52.056;8.510;2023-08-07T04:21:39;19.63;;;11.00;;
26277;SDS011;14000;52.056;8.510;2023-08-07T04:24:05;23.03;;;11.57;;
26277;SDS011;14000;52.056;8.510;2023-08-07T04:26:35;21.17;;;11.73;;
26277;SDS011;14000;52.056;8.510;2023-08-07T04:29:01;21.83;;;10.70;;
26277;SDS011;14000;52.056;8.510;2023-08-07T04:31:27;23.37;;;11.67;;
26277;SDS011;14000;52.056;8.510;2023-08-07T04:33:53;21.43;;;10.00;;
26277;SDS011;14000;52.056;8.510;2023-08-07T04:36:18;21.33;;;11.23;;
26277;SDS011;14000;52.056;8.510;2023-08-07T04:38:46;24.33;;;11.50;;
26277;SDS011;14000;52.056;8.510;2023-08-07T04:41:11;19.10;;;10.50;;
26277;SDS011;14000;52.056;8.510;2023-08-07T04:43:37;16.97;;;8.97;;
26277;SDS011;14000;52.056;8.510;2023-08-07T04:46:02;19.33;;;9.87;;
26277;SDS011;14000;52.056;8.510;2023-08-07T04:48:28;16.00;;;8.77;;
26277;SDS011;14000;52.056;8.510;2023-08-07T04:50:53;22.00;;;9.97;;
26277;SDS011;14000;52.056;8.510;2023-08-07T04:53:19;15.57;;;9.10;;
26277;SDS011;14000;52.056;8.510;2023-08-07T04:55:45;17.40;;;8.90;;
26277;SDS011;14000;52.056;8.510;2023-08-07T04:58:11;17.57;;;8.87;;
26277;SDS011;14000;52.056;8.510;2023-08-07T05:00:37;19.00;;;8.57;;
26277;SDS011;14000;52.056;8.510;2023-08-07T05:03:02;16.23;;;8.30;;
26277;SDS011;14000;52.056;8.510;2023-08-07T05:05:28;17.50;;;7.53;;
26277;SDS011;14000;52.056;8.510;2023-08-07T05:07:57;18.43;;;8.17;;
26277;SDS011;14000;52.056;8.510;2023-08-07T05:10:23;14.83;;;6.90;;
26277;SDS011;14000;52.056;8.510;2023-08-07T05:12:49;13.87;;;6.97;;
26277;SDS011;14000;52.056;8.510;2023-08-07T05:15:20;17.33;;;7.73;;
26277;SDS011;14000;52.056;8.510;2023-08-07T05:17:49;12.60;;;6.83;;
26277;SDS011;14000;52.056;8.510;2023-08-07T05:20:16;14.90;;;7.03;;
26277;SDS011;14000;52.056;8.510;2023-08-07T05:22:42;14.53;;;6.60;;
26277;SDS011;14000;52.056;8.510;2023-08-07T05:25:08;15.90;;;6.03;;
26277;SDS011;14000;52.056;8.510;2023-08-07T05:27:34;13.70;;;6.23;;
26277;SDS011;14000;52.056;8.510;2023-08-07T05:30:00;14.70;;;5.53;;
26277;SDS011;14000;52.056;8.510;2023-08-07T05:32:26;12.80;;;5.43;;
26277;SDS011;14000;52.056;8.510;2023-08-07T05:34:53;17.93;;;5.73;;
26277;SDS011;14000;52.056;8.510;2023-08-07T05:37:18;14.13;;;5.53;;
26277;SDS011;14000;52.056;8.510;2023-08-07T05:39:44;12.53;;;4.63;;
26277;SDS011;14000;52.056;8.510;2023-08-07T05:42:11;12.57;;;4.93;;
26277;SDS011;14000;52.056;8.510;2023-08-07T05:44:37;13.43;;;4.60;;
26277;SDS011;14000;52.056;8.510;2023-08-07T05:47:03;12.37;;;4.73;;
26277;SDS011;14000;52.056;8.510;2023-08-07T05:49:29;12.13;;;5.00;;
26277;SDS011;14000;52.056;8.510;2023-08-07T05:51:54;10.87;;;4.17;;
26277;SDS011;14000;52.056;8.510;2023-08-07T05:54:20;15.07;;;4.30;;
26277;SDS011;14000;52.056;8.510;2023-08-07T05:56:46;13.87;;;4.00;;
26277;SDS011;14000;52.056;8.510;2023-08-07T05:59:11;11.40;;;4.03;;
26277;SDS011;14000;52.056;8.510;2023-08-07T06:01:37;13.10;;;3.90;;
26277;SDS011;14000;52.056;8.510;2023-08-07T06:04:02;14.13;;;4.10;;
26277;SDS011;14000;52.056;8.510;2023-08-07T06:06:28;14.83;;;3.67;;
26277;SDS011;14000;52.056;8.510;2023-08-07T06:08:54;13.37;;;3.87;;
26277;SDS011;14000;52.056;8.510;2023-08-07T06:11:20;12.20;;;3.70;;
26277;SDS011;14000;52.056;8.510;2023-08-07T06:13:46;13.67;;;3.90;;
26277;SDS011;14000;52.056;8.510;2023-08-07T06:16:12;10.93;;;3.50;;
26277;SDS011;14000;52.056;8.510;2023-08-07T06:18:38;13.23;;;3.70;;
26277;SDS011;14000;52.056;8.510;2023-08-07T06:21:03;14.33;;;3.53;;
26277;SDS011;14000;52.056;8.510;2023-08-07T06:23:33;14.47;;;4.00;;
26277;SDS011;14000;52.056;8.510;2023-08-07T06:25:58;11.73;;;3.17;;
26277;SDS011;14000;52.056;8.510;2023-08-07T06:28:28;11.90;;;3.10;;
26277;SDS011;14000;52.056;8.510;2023-08-07T06:31:00;16.80;;;3.43;;
26277;SDS011;14000;52.056;8.510;2023-08-07T06:33:26;15.90;;;6.23;;
26277;SDS011;14000;52.056;8.510;2023-08-07T06:35:52;14.93;;;2.90;;
26277;SDS011;14000;52.056;8.510;2023-08-07T06:38:17;16.33;;;5.90;;
26277;SDS011;14000;52.056;8.510;2023-08-07T06:40:44;11.80;;;2.83;;
26277;SDS011;14000;52.056;8.510;2023-08-07T06:43:10;12.03;;;2.70;;
26277;SDS011;14000;52.056;8.510;2023-08-07T06:45:35;11.73;;;3.20;;
26277;SDS011;14000;52.056;8.510;2023-08-07T06:48:01;11.87;;;2.93;;
26277;SDS011;14000;52.056;8.510;2023-08-07T06:50:26;9.87;;;2.63;;
26277;SDS011;14000;52.056;8.510;2023-08-07T06:52:52;8.70;;;2.80;;
26277;SDS011;14000;52.056;8.510;2023-08-07T06:55:19;12.33;;;2.63;;
26277;SDS011;14000;52.056;8.510;2023-08-07T06:57:44;11.43;;;2.73;;
26277;SDS011;14000;52.056;8.510;2023-08-07T07:00:10;9.00;;;2.40;;
26277;SDS011;14000;52.056;8.510;2023-08-07T07:02:36;13.30;;;3.00;;
26277;SDS011;14000;52.056;8.510;2023-08-07T07:05:02;10.60;;;2.43;;
26277;SDS011;14000;52.056;8.510;2023-08-07T07:07:30;10.57;;;2.70;;
26277;SDS011;14000;52.056;8.510;2023-08-07T07:09:55;10.97;;;2.30;;
26277;SDS011;14000;52.056;8.510;2023-08-07T07:12:23;8.53;;;2.43;;
26277;SDS011;14000;52.056;8.510;2023-08-07T07:14:48;10.93;;;2.70;;
26277;SDS011;14000;52.056;8.510;2023-08-07T07:17:14;11.30;;;2.57;;
26277;SDS011;14000;52.056;8.510;2023-08-07T07:19:39;10.13;;;2.50;;
26277;SDS011;14000;52.056;8.510;2023-08-07T07:22:05;8.70;;;2.53;;
26277;SDS011;14000;52.056;8.510;2023-08-07T07:24:31;10.40;;;2.87;;
26277;SDS011;14000;52.056;8.510;2023-08-07T07:26:56;16.03;;;6.33;;
26277;SDS011;14000;52.056;8.510;2023-08-07T07:29:22;12.47;;;3.80;;
26277;SDS011;14000;52.056;8.510;2023-08-07T07:31:47;11.83;;;3.60;;
26277;SDS011;14000;52.056;8.510;2023-08-07T07:34:14;10.83;;;2.63;;
26277;SDS011;14000;52.056;8.510;2023-08-07T07:36:39;11.37;;;2.70;;
26277;SDS011;14000;52.056;8.510;2023-08-07T07:39:05;9.93;;;3.00;;
26277;SDS011;14000;52.056;8.510;2023-08-07T07:41:30;11.27;;;3.20;;
26277;SDS011;14000;52.056;8.510;2023-08-07T07:43:56;11.87;;;2.57;;
26277;SDS011;14000;52.056;8.510;2023-08-07T07:46:22;11.40;;;3.20;;
26277;SDS011;14000;52.056;8.510;2023-08-07T07:48:48;13.30;;;3.00;;
26277;SDS011;14000;52.056;8.510;2023-08-07T07:51:14;11.07;;;3.10;;
26277;SDS011;14000;52.056;8.510;2023-08-07T07:53:40;13.03;;;3.27;;
26277;SDS011;14000;52.056;8.510;2023-08-07T07:56:05;11.00;;;3.30;;
26277;SDS011;14000;52.056;8.510;2023-08-07T07:58:31;12.17;;;3.60;;
26277;SDS011;14000;52.056;8.510;2023-08-07T08:00:56;11.00;;;3.37;;
26277;SDS011;14000;52.056;8.510;2023-08-07T08:03:22;8.37;;;2.10;;
26277;SDS011;14000;52.056;8.510;2023-08-07T08:05:50;11.40;;;2.80;;
26277;SDS011;14000;52.056;8.510;2023-08-07T08:08:17;11.50;;;3.33;;
26277;SDS011;14000;52.056;8.510;2023-08-07T08:10:43;10.13;;;3.43;;
26277;SDS011;14000;52.056;8.510;2023-08-07T08:13:12;12.43;;;3.53;;
26277;SDS011;14000;52.056;8.510;2023-08-07T08:15:37;12.90;;;4.73;;
26277;SDS011;14000;52.056;8.510;2023-08-07T08:18:03;14.80;;;4.97;;
26277;SDS011;14000;52.056;8.510;2023-08-07T08:20:29;18.97;;;5.87;;
26277;SDS011;14000;52.056;8.510;2023-08-07T08:22:56;18.23;;;5.63;;
26277;SDS011;14000;52.056;8.510;2023-08-07T08:25:21;16.93;;;6.33;;
26277;SDS011;14000;52.056;8.510;2023-08-07T08:27:47;17.27;;;5.87;;
26277;SDS011;14000;52.056;8.510;2023-08-07T08:30:13;13.20;;;4.63;;
26277;SDS011;14000;52.056;8.510;2023-08-07T08:32:38;14.47;;;5.40;;
26277;SDS011;14000;52.056;8.510;2023-08-07T08:35:04;14.33;;;4.90;;
26277;SDS011;14000;52.056;8.510;2023-08-07T08:37:30;14.60;;;4.87;;
26277;SDS011;14000;52.056;8.510;2023-08-07T08:39:56;12.20;;;4.70;;
26277;SDS011;14000;52.056;8.510;2023-08-07T08:42:22;14.47;;;5.00;;
26277;SDS011;14000;52.056;8.510;2023-08-07T08:44:51;17.00;;;4.90;;
26277;SDS011;14000;52.056;8.510;2023-08-07T08:47:17;15.53;;;3.77;;
26277;SDS011;14000;52.056;8.510;2023-08-07T08:49:47;15.53;;;3.90;;
26277;SDS011;14000;52.056;8.510;2023-08-07T08:52:40;11.77;;;3.67;;
26277;SDS011;14000;52.056;8.510;2023-08-07T08:55:07;13.20;;;3.73;;
26277;SDS011;14000;52.056;8.510;2023-08-07T08:57:33;18.67;;;4.73;;
26277;SDS011;14000;52.056;8.510;2023-08-07T09:00:00;15.43;;;4.63;;
26277;SDS011;14000;52.056;8.510;2023-08-07T09:02:31;17.47;;;4.57;;
26277;SDS011;14000;52.056;8.510;2023-08-07T09:04:58;15.63;;;4.00;;
26277;SDS011;14000;52.056;8.510;2023-08-07T09:07:23;15.20;;;4.40;;
26277;SDS011;14000;52.056;8.510;2023-08-07T09:09:49;14.50;;;4.07;;
26277;SDS011;14000;52.056;8.510;2023-08-07T09:12:19;15.57;;;3.73;;
26277;SDS011;14000;52.056;8.510;2023-08-07T09:14:47;13.27;;;3.47;;
26277;SDS011;14000;52.056;8.510;2023-08-07T09:17:18;13.00;;;3.37;;
26277;SDS011;14000;52.056;8.510;2023-08-07T09:19:46;17.20;;;3.60;;
26277;SDS011;14000;52.056;8.510;2023-08-07T09:22:11;14.07;;;3.80;;
26277;SDS011;14000;52.056;8.510;2023-08-07T09:24:37;15.17;;;3.73;;
26277;SDS011;14000;52.056;8.510;2023-08-07T09:27:03;10.97;;;3.40;;
26277;SDS011;14000;52.056;8.510;2023-08-07T09:29:32;13.50;;;3.03;;
26277;SDS011;14000;52.056;8.510;2023-08-07T09:32:05;13.40;;;2.60;;
26277;SDS011;14000;52.056;8.510;2023-08-07T09:34:33;13.30;;;3.00;;
26277;SDS011;14000;52.056;8.510;2023-08-07T09:36:58;16.93;;;3.20;;
26277;SDS011;14000;52.056;8.510;2023-08-07T09:39:24;16.47;;;3.30;;
26277;SDS011;14000;52.056;8.510;2023-08-07T09:41:53;14.73;;;3.00;;
26277;SDS011;14000;52.056;8.510;2023-08-07T09:44:18;12.03;;;2.90;;
26277;SDS011;14000;52.056;8.510;2023-08-07T09:46:44;14.13;;;4.13;;
26277;SDS011;14000;52.056;8.510;2023-08-07T09:49:10;22.80;;;6.70;;
26277;SDS011;14000;52.056;8.510;2023-08-07T09:51:42;14.50;;;2.73;;
26277;SDS011;14000;52.056;8.510;2023-08-07T09:54:11;11.00;;;2.37;;
26277;SDS011;14000;52.056;8.510;2023-08-07T09:56:38;11.97;;;2.73;;
26277;SDS011;14000;52.056;8.510;2023-08-07T09:59:07;11.30;;;2.67;;
26277;SDS011;14000;52.056;8.510;2023-08-07T10:01:33;11.93;;;2.63;;
26277;SDS011;14000;52.056;8.510;2023-08-07T10:04:03;15.17;;;3.10;;
26277;SDS011;14000;52.056;8.510;2023-08-07T10:06:30;11.43;;;2.80;;
26277;SDS011;14000;52.056;8.510;2023-08-07T10:08:55;11.03;;;2.53;;
26277;SDS011;14000;52.056;8.510;2023-08-07T10:11:22;11.40;;;2.47;;
26277;SDS011;14000;52.056;8.510;2023-08-07T10:13:48;10.63;;;2.50;;
26277;SDS011;14000;52.056;8.510;2023-08-07T10:16:15;11.83;;;2.20;;
26277;SDS011;14000;52.056;8.510;2023-08-07T10:18:40;9.33;;;2.00;;
26277;SDS011;14000;52.056;8.510;2023-08-07T10:21:06;11.87;;;2.40;;
26277;SDS011;14000;52.056;8.510;2023-08-07T10:23:35;12.53;;;2.80;;
26277;SDS011;14000;52.056;8.510;2023-08-07T10:26:04;10.87;;;2.87;;
26277;SDS011;14000;52.056;8.510;2023-08-07T10:28:33;9.40;;;2.57;;
26277;SDS011;14000;52.056;8.510;2023-08-07T10:31:05;9.63;;;2.23;;
26277;SDS011;14000;52.056;8.510;2023-08-07T10:33:32;9.40;;;2.40;;
26277;SDS011;14000;52.056;8.510;2023-08-07T10:35:58;9.40;;;2.37;;
26277;SDS011;14000;52.056;8.510;2023-08-07T10:38:28;7.63;;;1.80;;
26277;SDS011;14000;52.056;8.510;2023-08-07T10:40:57;8.40;;;1.80;;
26277;SDS011;14000;52.056;8.510;2023-08-07T10:43:23;8.03;;;1.57;;
26277;SDS011;14000;52.056;8.510;2023-08-07T10:45:50;9.27;;;1.80;;
26277;SDS011;14000;52.056;8.510;2023-08-07T10:48:19;7.40;;;1.67;;
26277;SDS011;14000;52.056;8.510;2023-08-07T10:53:29;8.60;;;1.87;;
26277;SDS011;14000;52.056;8.510;2023-08-07T10:56:00;9.53;;;2.17;;
26277;SDS011;14000;52.056;8.510;2023-08-07T10:58:33;12.67;;;2.60;;
26277;SDS011;14000;52.056;8.510;2023-08-07T11:03:49;9.77;;;2.10;;
26277;SDS011;14000;52.056;8.510;2023-08-07T11:06:33;9.13;;;2.20;;
26277;SDS011;14000;52.056;8.510;2023-08-07T11:09:00;11.90;;;2.40;;
26277;SDS011;14000;52.056;8.510;2023-08-07T11:11:28;20.03;;;2.73;;
26277;SDS011;14000;52.056;8.510;2023-08-07T11:13:55;9.50;;;2.37;;
26277;SDS011;14000;52.056;8.510;2023-08-07T11:16:20;11.20;;;2.87;;
26277;SDS011;14000;52.056;8.510;2023-08-07T11:18:47;15.27;;;3.43;;
26277;SDS011;14000;52.056;8.510;2023-08-07T11:21:13;13.37;;;3.10;;
26277;SDS011;14000;52.056;8.510;2023-08-07T11:23:39;12.07;;;3.27;;
26277;SDS011;14000;52.056;8.510;2023-08-07T11:26:06;12.73;;;3.60;;
26277;SDS011;14000;52.056;8.510;2023-08-07T11:28:33;13.60;;;3.23;;
26277;SDS011;14000;52.056;8.510;2023-08-07T11:30:58;16.00;;;3.30;;
26277;SDS011;14000;52.056;8.510;2023-08-07T11:33:25;12.60;;;3.17;;
26277;SDS011;14000;52.056;8.510;2023-08-07T11:35:51;16.87;;;3.10;;
26277;SDS011;14000;52.056;8.510;2023-08-07T11:38:33;9.50;;;2.57;;
26277;SDS011;14000;52.056;8.510;2023-08-07T11:41:00;13.23;;;3.00;;
26277;SDS011;14000;52.056;8.510;2023-08-07T11:43:28;12.87;;;3.40;;
26277;SDS011;14000;52.056;8.510;2023-08-07T11:45:55;11.33;;;2.60;;
26277;SDS011;14000;52.056;8.510;2023-08-07T11:48:23;13.57;;;3.13;;
26277;SDS011;14000;52.056;8.510;2023-08-07T11:50:53;13.60;;;2.77;;
26277;SDS011;14000;52.056;8.510;2023-08-07T11:53:20;13.97;;;3.00;;
26277;SDS011;14000;52.056;8.510;2023-08-07T11:55:47;16.20;;;3.10;;
26277;SDS011;14000;52.056;8.510;2023-08-07T11:58:16;12.30;;;3.00;;
26277;SDS011;14000;52.056;8.510;2023-08-07T12:00:43;15.07;;;3.00;;
26277;SDS011;14000;52.056;8.510;2023-08-07T12:03:25;14.23;;;3.13;;
26277;SDS011;14000;52.056;8.510;2023-08-07T12:05:55;13.23;;;2.90;;
26277;SDS011;14000;52.056;8.510;2023-08-07T12:08:22;13.47;;;3.03;;
26277;SDS011;14000;52.056;8.510;2023-08-07T12:10:54;12.87;;;2.70;;
26277;SDS011;14000;52.056;8.510;2023-08-07T12:13:20;11.33;;;2.67;;
26277;SDS011;14000;52.056;8.510;2023-08-07T12:15:50;17.87;;;6.60;;
26277;SDS011;14000;52.056;8.510;2023-08-07T12:18:18;15.53;;;3.80;;
26277;SDS011;14000;52.056;8.510;2023-08-07T12:20:45;12.27;;;3.20;;
26277;SDS011;14000;52.056;8.510;2023-08-07T12:23:14;12.47;;;2.90;;
26277;SDS011;14000;52.056;8.510;2023-08-07T12:25:41;10.90;;;2.63;;
26277;SDS011;14000;52.056;8.510;2023-08-07T12:28:07;10.77;;;2.47;;
26277;SDS011;14000;52.056;8.510;2023-08-07T12:30:38;13.73;;;2.70;;
26277;SDS011;14000;52.056;8.510;2023-08-07T12:33:05;10.63;;;2.67;;
26277;SDS011;14000;52.056;8.510;2023-08-07T12:35:32;12.00;;;2.70;;
26277;SDS011;14000;52.056;8.510;2023-08-07T12:37:59;12.93;;;2.90;;
26277;SDS011;14000;52.056;8.510;2023-08-07T12:40:26;18.30;;;3.20;;
26277;SDS011;14000;52.056;8.510;2023-08-07T12:42:52;12.20;;;3.23;;
26277;SDS011;14000;52.056;8.510;2023-08-07T12:45:18;15.43;;;3.50;;
26277;SDS011;14000;52.056;8.510;2023-08-07T12:47:44;16.30;;;3.07;;
26277;SDS011;14000;52.056;8.510;2023-08-07T12:50:10;12.07;;;2.90;;
26277;SDS011;14000;52.056;8.510;2023-08-07T12:52:36;14.53;;;3.13;;
26277;SDS011;14000;52.056;8.510;2023-08-07T12:55:02;14.47;;;2.77;;
26277;SDS011;14000;52.056;8.510;2023-08-07T12:57:28;13.43;;;2.60;;
26277;SDS011;14000;52.056;8.510;2023-08-07T12:59:54;11.60;;;2.37;;
26277;SDS011;14000;52.056;8.510;2023-08-07T13:02:20;11.33;;;2.50;;
26277;SDS011;14000;52.056;8.510;2023-08-07T13:04:45;13.93;;;2.67;;
26277;SDS011;14000;52.056;8.510;2023-08-07T13:07:11;16.30;;;3.10;;
26277;SDS011;14000;52.056;8.510;2023-08-07T13:09:37;12.47;;;2.33;;
26277;SDS011;14000;52.056;8.510;2023-08-07T13:12:02;11.73;;;2.60;;
26277;SDS011;14000;52.056;8.510;2023-08-07T13:14:29;9.93;;;2.13;;
26277;SDS011;14000;52.056;8.510;2023-08-07T13:16:55;10.93;;;2.40;;
26277;SDS011;14000;52.056;8.510;2023-08-07T13:19:21;12.73;;;2.60;;
26277;SDS011;14000;52.056;8.510;2023-08-07T13:21:47;11.23;;;2.57;;
26277;SDS011;14000;52.056;8.510;2023-08-07T13:24:12;12.10;;;2.20;;
26277;SDS011;14000;52.056;8.510;2023-08-07T13:26:38;13.10;;;2.83;;
26277;SDS011;14000;52.056;8.510;2023-08-07T13:29:09;11.93;;;2.50;;
26277;SDS011;14000;52.056;8.510;2023-08-07T13:31:35;9.60;;;2.70;;
26277;SDS011;14000;52.056;8.510;2023-08-07T13:34:01;12.30;;;3.23;;
26277;SDS011;14000;52.056;8.510;2023-08-07T13:36:32;13.83;;;2.47;;
26277;SDS011;14000;52.056;8.510;2023-08-07T13:38:58;12.47;;;2.50;;
26277;SDS011;14000;52.056;8.510;2023-08-07T13:41:25;12.97;;;2.40;;
26277;SDS011;14000;52.056;8.510;2023-08-07T13:43:51;11.37;;;2.73;;
26277;SDS011;14000;52.056;8.510;2023-08-07T13:46:16;11.67;;;2.10;;
26277;SDS011;14000;52.056;8.510;2023-08-07T13:48:43;10.43;;;2.33;;
26277;SDS011;14000;52.056;8.510;2023-08-07T13:51:09;12.30;;;2.60;;
26277;SDS011;14000;52.056;8.510;2023-08-07T13:53:35;11.63;;;2.70;;
26277;SDS011;14000;52.056;8.510;2023-08-07T13:56:01;17.40;;;3.10;;
26277;SDS011;14000;52.056;8.510;2023-08-07T13:58:27;11.90;;;2.70;;
26277;SDS011;14000;52.056;8.510;2023-08-07T14:00:53;12.80;;;2.77;;
26277;SDS011;14000;52.056;8.510;2023-08-07T14:03:18;13.47;;;2.40;;
26277;SDS011;14000;52.056;8.510;2023-08-07T14:05:45;10.90;;;2.57;;
26277;SDS011;14000;52.056;8.510;2023-08-07T14:08:10;10.30;;;2.30;;
26277;SDS011;14000;52.056;8.510;2023-08-07T14:10:36;12.00;;;2.30;;
26277;SDS011;14000;52.056;8.510;2023-08-07T14:13:04;12.67;;;2.80;;
26277;SDS011;14000;52.056;8.510;2023-08-07T14:15:29;10.77;;;2.70;;
26277;SDS011;14000;52.056;8.510;2023-08-07T14:17:55;8.63;;;2.43;;
26277;SDS011;14000;52.056;8.510;2023-08-07T14:20:22;8.60;;;2.20;;
26277;SDS011;14000;52.056;8.510;2023-08-07T14:22:48;11.30;;;2.43;;
26277;SDS011;14000;52.056;8.510;2023-08-07T14:25:14;11.17;;;2.40;;
26277;SDS011;14000;52.056;8.510;2023-08-07T14:27:40;12.10;;;3.80;;
26277;SDS011;14000;52.056;8.510;2023-08-07T14:30:06;11.83;;;2.80;;
26277;SDS011;14000;52.056;8.510;2023-08-07T14:32:32;14.00;;;2.33;;
26277;SDS011;14000;52.056;8.510;2023-08-07T14:34:58;10.60;;;2.40;;
26277;SDS011;14000;52.056;8.510;2023-08-07T14:37:23;11.10;;;2.30;;